Latest Weather Observations for Nowra

IDN60801

Issued at 7:22 pm EDT Friday 23 October 2020 (issued every 10 minutes, with the page automatically refreshed every 10 minutes)

About weather observations | Map of weather stations | Latest weather observations for NSW | Other Formats
Station Details ID: 068072 Name: NOWRA RAN AIR STATION AWS Lat: -34.95 Lon: 150.54 Height: 109.0 m
Data from the previous 72 hours. | See also: Recent months at Nowra
Date/Time
EDT
Temp
°C
App
Temp
°C
Dew
Point
°C
Rel
Hum
%
Delta-T
°C
Wind Press
QNH
hPa
Press
MSL
hPa
Rain since
9am
mm
Dir  Spd
km/h
Gust
km/h
Spd
kts
Gust
kts
23/07:00pm 20.9 19.3 15.0 69 3.5 NE 17 26 9 14 1008.0 1007.8 0.0
23/06:30pm 21.8 19.0 14.4 63 4.4 NE 22 30 12 16 1007.7 1007.5 0.0
23/06:00pm 23.0 21.6 14.6 59 5.0 ENE 15 28 8 15 1007.4 1007.2 0.0
23/05:30pm 24.1 22.2 15.3 58 5.3 E 19 26 10 14 1007.3 1007.1 0.0
23/05:00pm 25.2 22.2 14.9 52 6.2 ENE 24 32 13 17 1007.3 1007.1 0.0
23/04:30pm 25.4 22.7 15.7 55 5.9 E 24 32 13 17 1007.5 1007.3 0.0
23/04:00pm 25.4 22.1 16.0 56 5.8 ENE 28 33 15 18 1007.9 1007.7 0.0
23/03:30pm 25.0 21.0 16.2 58 5.4 ENE 32 41 17 22 1008.0 1007.8 0.0
23/03:00pm 25.3 21.6 15.0 53 6.2 ENE 28 39 15 21 1008.3 1008.1 0.0
23/02:30pm 26.9 24.0 15.0 48 7.2 E 24 33 13 18 1008.8 1008.6 0.0
23/02:00pm 27.0 24.3 16.6 53 6.5 E 26 32 14 17 1009.3 1009.1 0.0
23/01:30pm 26.3 24.8 16.3 54 6.2 ENE 19 24 10 13 1010.1 1009.9 0.0
23/01:00pm 26.0 25.0 15.7 53 6.3 ENE 15 22 8 12 1010.7 1010.5 0.0
23/12:30pm 26.3 24.7 16.0 53 6.3 E 19 22 10 12 1011.0 1010.8 0.0
23/12:00pm 25.7 24.5 16.0 55 6.0 ESE 17 22 9 12 1011.3 1011.2 0.0
23/11:30am 25.1 24.8 15.4 55 5.9 E 11 20 6 11 1011.7 1011.6 0.0
23/11:00am 24.3 23.8 16.0 60 5.1 NE 13 19 7 10 1012.2 1012.1 0.0
23/10:30am 22.8 21.8 14.6 60 4.9 NE 13 17 7 9 1012.5 1012.4 0.0
23/10:00am 22.3 22.4 15.4 65 4.1 NE 9 13 5 7 1012.8 1012.6 0.0
23/09:30am 20.9 21.3 15.4 71 3.3 NNE 7 11 4 6 1013.2 1013.0 0.0
23/09:00am 19.9 20.3 15.3 75 2.7 N 7 9 4 5 1013.5 1013.3 0.0
23/08:30am 18.2 19.6 17.4 95 0.5 NNW 6 7 3 4 1013.5 1013.3 0.0
23/08:00am 16.7 18.2 16.7 100 0.0 NNW 4 7 2 4 1013.7 1013.5 0.0
23/07:30am 15.5 16.2 15.5 100 0.0 WNW 6 9 3 5 1013.7 1013.5 0.0
23/07:00am 14.1 15.4 14.1 100 0.0 CALM 0 0 0 0 1013.6 1013.4 0.0
23/06:30am 14.1 13.3 14.1 100 0.0 W 11 13 6 7 1013.5 1013.3 0.0
23/06:28am 14.0 13.2 14.0 100 0.0 W 11 13 6 7 1013.5 1013.3 0.0
23/06:00am 12.3 11.9 12.3 100 0.0 NNE 6 7 3 4 1012.8 1012.6 0.0
23/05:39am 13.2 14.2 13.2 100 0.0 CALM 0 0 0 0 1013.4 1013.2 0.0
23/05:30am 13.7 14.9 13.7 100 0.0 CALM 0 0 0 0 1013.0 1012.8 0.0
23/05:23am 13.5 14.6 13.5 100 0.0 CALM 0 0 0 0 1013.0 1012.8 0.0
23/05:00am 13.7 13.7 13.7 100 0.0 W 6 9 3 5 1012.8 1012.6 0.0
23/04:50am 13.7 14.5 13.7 100 0.0 W 2 7 1 4 1012.6 1012.5 0.0
23/04:30am 14.2 13.5 14.2 100 0.0 W 11 13 6 7 1012.6 1012.5 0.0
23/04:00am 14.8 15.0 14.8 100 0.0 W 7 9 4 5 1012.5 1012.4 0.0
23/03:39am 14.7 14.5 14.7 100 0.0 WSW 9 13 5 7 1012.8 1012.6 0.0
23/03:30am 14.8 14.3 14.8 100 0.0 SW 11 13 6 7 1012.8 1012.6 0.0
23/03:27am 14.6 14.0 14.6 100 0.0 SW 11 13 6 7 1012.8 1012.6 0.0
23/03:00am 14.5 13.9 14.5 100 0.0 SSW 11 13 6 7 1013.0 1012.8 0.0
23/02:51am 14.6 14.0 14.6 100 0.0 SSW 11 15 6 8 1012.9 1012.7 0.0
23/02:48am 14.4 13.3 14.4 100 0.0 SSW 13 15 7 8 1012.9 1012.7 0.0
23/02:30am 13.2 12.9 13.2 100 0.0 SSW 7 11 4 6 1013.2 1013.0 0.0
23/02:00am 13.4 13.1 13.4 100 0.0 S 7 11 4 6 1013.7 1013.5 0.0
23/01:30am 13.0 12.6 13.0 100 0.0 SSW 7 9 4 5 1014.0 1013.8 0.0
23/01:00am 13.1 12.4 13.1 100 0.0 SSW 9 9 5 5 1014.2 1014.0 0.0
23/12:57am 13.0 12.2 13.0 100 0.0 SSW 9 9 5 5 1014.2 1014.0 0.0
23/12:37am 13.3 13.0 13.3 100 0.0 S 7 9 4 5 1014.4 1014.2 0.0
23/12:30am 14.2 14.2 14.2 100 0.0 S 7 17 4 9 1014.3 1014.1 0.0
23/12:00am 13.5 12.9 13.5 100 0.0 SW 9 11 5 6 1014.6 1014.4 0.0
 
Date/Time
EDT
Temp
°C
App
Temp
°C
Dew
Point
°C
Rel
Hum
%
Delta-T
°C
Wind Press
QNH
hPa
Press
MSL
hPa
Rain since
9am
mm
Dir  Spd
km/h
Gust
km/h
Spd
kts
Gust
kts
22/11:30pm 13.8 13.3 13.8 100 0.0 SW 9 11 5 6 1014.6 1014.4 0.0
22/11:00pm 14.2 13.5 14.2 100 0.0 SW 11 13 6 7 1014.6 1014.4 0.0
22/10:30pm 14.9 14.8 14.9 100 0.0 SSW 9 17 5 9 1014.9 1014.7 0.0
22/10:00pm 15.3 14.2 15.3 100 0.0 SW 15 17 8 9 1015.3 1015.1 0.0
22/09:30pm 15.4 14.7 15.4 100 0.0 SSW 13 17 7 9 1015.4 1015.2 0.0
22/09:00pm 15.0 14.8 14.8 99 0.1 S 9 9 5 5 1015.1 1014.9 0.0
22/08:30pm 15.7 15.5 14.7 94 0.6 S 9 11 5 6 1014.9 1014.7 0.0
22/08:00pm 16.6 16.4 14.8 89 1.0 SSE 9 11 5 6 1014.5 1014.3 0.0
22/07:30pm 17.4 17.7 14.9 85 1.5 ESE 7 9 4 5 1014.2 1014.0 0.0
22/07:00pm 18.3 17.8 14.8 80 2.0 E 11 13 6 7 1014.0 1013.8 0.0
22/06:30pm 18.8 17.9 14.9 78 2.3 E 13 17 7 9 1013.8 1013.6 0.0
22/06:00pm 19.8 18.6 15.0 74 2.8 ENE 15 19 8 10 1013.6 1013.4 0.0
22/05:30pm 20.0 18.1 14.1 69 3.4 E 17 20 9 11 1013.5 1013.3 0.0
22/05:05pm 20.3 18.9 13.5 65 3.9 ENE 13 19 7 10 1013.4 1013.2 0.0
22/05:00pm 21.1 20.1 14.7 67 3.8 ENE 13 19 7 10 1013.3 1013.1 0.0
22/04:49pm 20.6 19.5 15.2 71 3.2 ESE 15 22 8 12 1013.0 1012.8 0.0
22/04:30pm 20.4 18.6 15.4 73 3.0 SE 19 24 10 13 1013.0 1012.8 0.0
22/04:00pm 20.8 18.7 14.7 68 3.6 ESE 19 28 10 15 1013.1 1012.9 0.0
22/03:30pm 21.3 19.3 14.9 67 3.8 ESE 19 24 10 13 1013.1 1012.9 0.0
22/03:00pm 21.7 20.0 14.6 64 4.2 SE 17 22 9 12 1013.3 1013.1 0.0
22/02:30pm 23.1 21.7 14.4 58 5.1 ESE 15 24 8 13 1013.6 1013.4 0.0
22/02:00pm 22.2 21.0 15.1 64 4.2 SE 15 24 8 13 1013.9 1013.7 0.0
22/01:30pm 21.4 20.2 15.0 67 3.8 ESE 15 20 8 11 1014.4 1014.2 0.0
22/01:00pm 21.9 20.9 15.5 67 3.8 ESE 15 20 8 11 1014.5 1014.3 0.0
22/12:30pm 20.6 20.1 14.9 70 3.4 ESE 11 20 6 11 1014.7 1014.5 0.0
22/12:00pm 20.0 19.2 15.2 74 2.8 ESE 13 17 7 9 1015.2 1015.0 0.0
22/11:30am 20.2 20.0 15.6 75 2.7 E 11 15 6 8 1015.4 1015.2 0.0
22/11:00am 19.1 19.1 15.2 78 2.3 E 9 13 5 7 1015.7 1015.5 0.0
22/10:30am 18.3 18.0 15.4 83 1.7 ESE 11 15 6 8 1015.9 1015.7 0.0
22/10:00am 17.7 18.0 15.1 85 1.5 SE 7 11 4 6 1016.1 1015.9 0.0
22/09:30am 17.6 17.5 15.0 85 1.5 SSE 9 15 5 8 1015.9 1015.7 0.0
22/09:00am 17.0 19.2 16.5 97 0.3 CALM 0 0 0 0 1015.8 1015.6 0.0
22/08:30am 16.4 17.3 16.2 99 0.1 SSW 6 7 3 4 1015.8 1015.6 0.0
22/08:00am 16.3 16.6 16.1 99 0.1 SSW 9 11 5 6 1015.7 1015.5 0.0
22/07:30am 16.3 17.0 16.1 99 0.1 SSE 7 9 4 5 1015.5 1015.3 0.0
22/07:00am 16.3 16.2 16.1 99 0.1 SSE 11 15 6 8 1015.2 1015.0 0.0
22/06:30am 16.1 16.4 15.9 99 0.1 S 9 11 5 6 1014.8 1014.6 0.0
22/06:00am 16.2 16.9 16.0 99 0.1 S 7 11 4 6 1014.6 1014.4 0.0
22/05:30am 16.3 16.5 15.8 97 0.3 SSE 9 13 5 7 1014.3 1014.1 0.0
22/05:00am 16.3 16.0 15.5 95 0.5 S 11 13 6 7 1013.9 1013.7 0.0
22/04:30am 16.4 15.7 15.4 94 0.6 S 13 19 7 10 1013.7 1013.5 0.0
22/04:29am 16.3 15.6 15.3 94 0.6 S 13 19 7 10 1013.7 1013.5 0.0
22/04:00am 16.5 15.5 15.5 94 0.6 SSE 15 20 8 11 1013.5 1013.3 0.0
22/03:30am 15.7 15.1 14.7 94 0.6 SSE 11 13 6 7 1013.6 1013.4 0.0
22/03:00am 15.5 15.2 14.5 94 0.6 SSE 9 11 5 6 1013.7 1013.5 0.0
22/02:30am 15.6 15.2 14.0 90 0.9 SE 9 11 5 6 1013.8 1013.6 0.0
22/02:00am 16.1 15.5 14.5 90 0.9 S 11 17 6 9 1014.1 1013.9 0.0
22/01:30am 15.8 15.3 14.8 94 0.6 S 11 15 6 8 1014.1 1013.9 0.0
22/01:00am 15.1 15.0 14.9 99 0.1 SSW 9 11 5 6 1014.1 1013.9 0.0
22/12:30am 15.0 15.2 14.8 99 0.1 SSW 7 11 4 6 1014.1 1013.9 0.0
22/12:00am 14.8 16.3 14.6 99 0.1 CALM 0 0 0 0 1014.0 1013.8 0.0
 
Date/Time
EDT
Temp
°C
App
Temp
°C
Dew
Point
°C
Rel
Hum
%
Delta-T
°C
Wind Press
QNH
hPa
Press
MSL
hPa
Rain since
9am
mm
Dir  Spd
km/h
Gust
km/h
Spd
kts
Gust
kts
21/11:30pm 14.4 15.7 14.1 98 0.2 CALM 0 0 0 0 1014.0 1013.8 0.0
21/11:00pm 14.9 16.1 13.8 93 0.6 CALM 0 0 0 0 1014.0 1013.8 0.0
21/10:30pm 15.1 15.6 14.1 94 0.6 SW 4 7 2 4 1014.1 1013.9 0.0
21/10:00pm 15.7 17.0 14.1 90 0.9 CALM 0 6 0 3 1013.9 1013.7 0.0
21/09:30pm 16.0 16.9 14.0 88 1.1 S 2 9 1 5 1013.8 1013.6 0.0
21/09:00pm 16.2 17.5 14.2 88 1.1 CALM 0 0 0 0 1013.6 1013.4 0.0
21/08:30pm 16.2 17.1 13.9 86 1.3 SSW 2 7 1 4 1013.2 1013.0 0.0
21/08:00pm 17.0 17.0 14.1 83 1.7 E 7 9 4 5 1012.8 1012.6 0.0
21/07:30pm 17.7 17.3 14.0 79 2.1 ESE 9 11 5 6 1012.4 1012.3 0.0
21/07:00pm 18.5 18.1 14.0 75 2.6 E 9 11 5 6 1012.2 1012.1 0.0
21/06:30pm 19.4 18.1 13.8 70 3.2 E 13 19 7 10 1011.9 1011.8 0.0
21/06:00pm 20.5 19.3 13.9 66 3.8 E 13 20 7 11 1011.9 1011.8 0.0
21/05:30pm 21.4 20.1 13.8 62 4.4 E 13 17 7 9 1011.7 1011.6 0.0
21/05:00pm 21.7 19.3 13.9 61 4.6 NE 19 26 10 14 1011.4 1011.3 0.0
21/04:30pm 22.3 19.0 13.9 59 4.9 NE 24 30 13 16 1011.4 1011.3 0.0
21/04:00pm 23.2 19.1 13.7 55 5.6 NE 28 35 15 19 1011.5 1011.4 0.0
21/03:30pm 23.1 20.0 14.4 58 5.1 ENE 24 30 13 16 1011.9 1011.8 0.0
21/03:00pm 22.4 20.0 14.5 61 4.7 E 20 28 11 15 1012.2 1012.1 0.0
21/02:30pm 23.2 19.7 13.4 54 5.7 ENE 24 28 13 15 1012.4 1012.3 0.0
21/02:00pm 24.6 21.0 13.2 49 6.7 ENE 24 33 13 18 1012.5 1012.4 0.0
21/01:30pm 25.2 21.9 14.0 49 6.6 E 24 30 13 16 1013.0 1012.8 0.0
21/01:00pm 25.3 22.3 13.8 49 6.8 E 22 30 12 16 1013.3 1013.1 0.0
21/12:30pm 24.9 22.6 13.1 48 6.9 E 17 24 9 13 1013.8 1013.6 0.0
21/12:00pm 24.0 22.1 11.7 46 7.0 N 13 20 7 11 1014.3 1014.1 0.0
21/11:30am 23.6 22.0 11.6 47 6.8 N 11 20 6 11 1014.9 1014.7 0.0
21/11:00am 22.9 21.1 12.2 51 6.1 N 13 20 7 11 1015.4 1015.2 0.0
21/10:30am 22.2 20.0 12.2 53 5.7 N 15 22 8 12 1015.8 1015.6 0.0
21/10:00am 20.9 18.6 11.8 56 5.1 NNW 15 20 8 11 1016.0 1015.8 0.0
21/09:30am 19.9 18.5 10.9 56 4.9 N 9 15 5 8 1016.3 1016.1 0.0
21/09:00am 19.2 17.4 11.0 59 4.5 NNW 11 15 6 8 1016.6 1016.4 0.0
21/08:30am 18.4 16.4 11.5 64 3.8 NW 13 15 7 8 1016.7 1016.5 0.0
21/08:00am 16.9 16.6 12.8 77 2.3 NNW 6 7 3 4 1016.7 1016.5 0.0
21/07:30am 15.5 15.5 15.3 99 0.1 NW 9 9 5 5 1016.5 1016.3 0.0
21/07:00am 12.0 12.2 12.0 100 0.0 WNW 2 7 1 4 1016.4 1016.2 0.0
21/06:30am 10.3 10.4 10.3 100 0.0 CALM 0 0 0 0 1016.2 1016.0 0.0
21/06:00am 10.1 10.2 10.0 99 0.1 CALM 0 0 0 0 1015.9 1015.7 0.0
21/05:30am 10.5 10.6 10.3 99 0.1 CALM 0 0 0 0 1015.7 1015.5 0.0
21/05:00am 11.3 11.7 11.3 100 0.0 CALM 0 0 0 0 1015.6 1015.4 0.0
21/04:30am 11.5 12.0 11.5 100 0.0 CALM 0 0 0 0 1015.5 1015.3 0.0
21/04:00am 12.7 13.5 12.7 100 0.0 CALM 0 0 0 0 1015.5 1015.3 0.0
21/03:30am 12.2 12.9 12.2 100 0.0 CALM 0 4 0 2 1015.5 1015.3 0.0
21/03:00am 11.0 11.3 11.0 100 0.0 CALM 0 2 0 1 1015.7 1015.5 0.0
21/02:30am 10.0 8.9 10.0 100 0.0 W 6 7 3 4 1016.0 1015.8 0.0
21/02:00am 9.7 8.9 9.6 99 0.1 W 4 9 2 5 1016.2 1016.0 0.0
21/01:30am 10.0 10.0 9.9 99 0.1 CALM 0 0 0 0 1016.5 1016.3 0.0
21/01:00am 10.0 8.9 9.9 99 0.1 W 6 7 3 4 1016.7 1016.5 0.0
21/12:30am 10.6 10.4 10.4 99 0.1 W 2 7 1 4 1017.0 1016.8 0.0
21/12:00am 10.7 10.9 10.5 99 0.1 CALM 0 0 0 0 1017.1 1016.9 0.0
 
Date/Time
EDT
Temp
°C
App
Temp
°C
Dew
Point
°C
Rel
Hum
%
Delta-T
°C
Wind Press
QNH
hPa
Press
MSL
hPa
Rain since
9am
mm
Dir  Spd
km/h
Gust
km/h
Spd
kts
Gust
kts
20/11:30pm 11.2 11.5 11.0 99 0.1 CALM 0 0 0 0 1017.1 1016.9 0.0
20/11:00pm 11.5 11.9 11.2 98 0.2 CALM 0 0 0 0 1017.3 1017.1 0.0
20/10:30pm 11.9 12.3 11.3 96 0.3 CALM 0 0 0 0 1017.4 1017.2 0.0
20/10:00pm 12.5 12.7 10.6 88 1.0 CALM 0 0 0 0 1017.4 1017.2 0.0
20/09:30pm 14.2 14.9 12.1 87 1.1 CALM 0 0 0 0 1017.5 1017.3 0.0
20/09:00pm 14.5 13.9 12.2 86 1.3 NNE 7 9 4 5 1017.6 1017.4 0.0
20/08:30pm 14.6 13.2 12.1 85 1.4 NE 11 13 6 7 1017.3 1017.1 0.0
20/08:00pm 15.5 13.3 12.1 80 1.9 NE 15 20 8 11 1017.1 1016.9 0.0
20/07:30pm 16.1 13.7 11.5 74 2.5 NE 15 20 8 11 1017.0 1016.8 0.0

Other formats

Comma delimited format used in spreadsheet applications
http://www.bom.gov.au/fwo/IDN60801/IDN60801.94750.axf

JavaScript Object Notation format (JSON) in row-major order
http://www.bom.gov.au/fwo/IDN60801/IDN60801.94750.json

Data quality

Most of these data are generated automatically and are frequently updated. Quality checks on data are not normally performed. It is possible for incorrect values to appear. Refer to information at About Latest Weather Observations and please check the disclaimer before using these data.